sensor_id;sensor_type;location;lat;lon;timestamp;temperature;humidity
13835;DHT22;6988;52.614;13.500;2023-02-05T00:03:50;-1.70;99.90
13835;DHT22;6988;52.614;13.500;2023-02-05T00:08:41;-1.70;99.90
13835;DHT22;6988;52.614;13.500;2023-02-05T00:13:34;-1.70;99.90
13835;DHT22;6988;52.614;13.500;2023-02-05T00:18:26;-1.80;99.90
13835;DHT22;6988;52.614;13.500;2023-02-05T00:23:19;-1.80;99.90
13835;DHT22;6988;52.614;13.500;2023-02-05T00:28:11;-1.90;99.90
13835;DHT22;6988;52.614;13.500;2023-02-05T00:33:03;-1.80;99.90
13835;DHT22;6988;52.614;13.500;2023-02-05T00:37:55;-1.80;99.90
13835;DHT22;6988;52.614;13.500;2023-02-05T00:42:48;-1.80;99.90
13835;DHT22;6988;52.614;13.500;2023-02-05T00:47:40;-1.80;99.90
13835;DHT22;6988;52.614;13.500;2023-02-05T00:52:31;-1.80;99.90
13835;DHT22;6988;52.614;13.500;2023-02-05T00:57:23;-1.90;99.90
13835;DHT22;6988;52.614;13.500;2023-02-05T01:02:18;-1.90;99.90
13835;DHT22;6988;52.614;13.500;2023-02-05T01:07:12;-1.90;99.90
13835;DHT22;6988;52.614;13.500;2023-02-05T01:12:04;-1.90;99.90
13835;DHT22;6988;52.614;13.500;2023-02-05T01:16:56;-2.00;99.90
13835;DHT22;6988;52.614;13.500;2023-02-05T01:21:50;-2.10;99.90
13835;DHT22;6988;52.614;13.500;2023-02-05T01:26:42;-2.20;99.90
13835;DHT22;6988;52.614;13.500;2023-02-05T01:31:34;-2.30;99.90
13835;DHT22;6988;52.614;13.500;2023-02-05T01:36:26;-2.20;99.90
13835;DHT22;6988;52.614;13.500;2023-02-05T01:41:19;-2.30;99.90
13835;DHT22;6988;52.614;13.500;2023-02-05T01:46:23;-2.30;99.90
13835;DHT22;6988;52.614;13.500;2023-02-05T01:51:17;-2.20;99.90
13835;DHT22;6988;52.614;13.500;2023-02-05T01:56:13;-2.30;99.90
13835;DHT22;6988;52.614;13.500;2023-02-05T02:01:09;-2.30;99.90
13835;DHT22;6988;52.614;13.500;2023-02-05T02:06:01;-2.30;99.90
13835;DHT22;6988;52.614;13.500;2023-02-05T02:10:56;-2.40;99.90
13835;DHT22;6988;52.614;13.500;2023-02-05T02:15:49;-2.50;99.90
13835;DHT22;6988;52.614;13.500;2023-02-05T02:20:43;-2.50;99.90
13835;DHT22;6988;52.614;13.500;2023-02-05T02:25:47;-2.50;99.90
13835;DHT22;6988;52.614;13.500;2023-02-05T02:31:03;-2.60;99.90
13835;DHT22;6988;52.614;13.500;2023-02-05T02:36:02;-2.60;99.90
13835;DHT22;6988;52.614;13.500;2023-02-05T02:41:02;-2.60;99.90
13835;DHT22;6988;52.614;13.500;2023-02-05T02:46:03;-2.70;99.90
13835;DHT22;6988;52.614;13.500;2023-02-05T02:50:59;-2.70;99.90
13835;DHT22;6988;52.614;13.500;2023-02-05T03:02:27;-2.90;99.90
13835;DHT22;6988;52.614;13.500;2023-02-05T03:07:25;-2.80;99.90
13835;DHT22;6988;52.614;13.500;2023-02-05T03:12:21;-2.90;99.90
13835;DHT22;6988;52.614;13.500;2023-02-05T03:17:14;-2.90;99.90
13835;DHT22;6988;52.614;13.500;2023-02-05T03:22:10;-2.90;99.90
13835;DHT22;6988;52.614;13.500;2023-02-05T03:27:02;-3.00;99.90
13835;DHT22;6988;52.614;13.500;2023-02-05T03:31:59;-3.00;99.90
13835;DHT22;6988;52.614;13.500;2023-02-05T03:37:12;-3.00;99.90
13835;DHT22;6988;52.614;13.500;2023-02-05T03:42:18;-3.00;99.90
13835;DHT22;6988;52.614;13.500;2023-02-05T03:47:33;-3.00;99.90
13835;DHT22;6988;52.614;13.500;2023-02-05T03:52:41;-3.00;99.90
13835;DHT22;6988;52.614;13.500;2023-02-05T03:57:39;-3.00;99.90
13835;DHT22;6988;52.614;13.500;2023-02-05T04:02:37;-3.10;99.90
13835;DHT22;6988;52.614;13.500;2023-02-05T04:07:29;-3.10;99.90
13835;DHT22;6988;52.614;13.500;2023-02-05T04:12:22;-3.10;99.90
13835;DHT22;6988;52.614;13.500;2023-02-05T04:17:14;-3.10;99.90
13835;DHT22;6988;52.614;13.500;2023-02-05T04:22:06;-3.10;99.90
13835;DHT22;6988;52.614;13.500;2023-02-05T04:27:02;-3.00;99.90
13835;DHT22;6988;52.614;13.500;2023-02-05T04:31:55;-3.00;99.90
13835;DHT22;6988;52.614;13.500;2023-02-05T04:36:47;-2.90;99.90
13835;DHT22;6988;52.614;13.500;2023-02-05T04:41:40;-3.00;99.90
13835;DHT22;6988;52.614;13.500;2023-02-05T04:46:32;-2.90;99.90
13835;DHT22;6988;52.614;13.500;2023-02-05T04:51:25;-3.00;99.90
13835;DHT22;6988;52.614;13.500;2023-02-05T04:56:17;-3.00;99.90
13835;DHT22;6988;52.614;13.500;2023-02-05T05:01:11;-3.10;99.90
13835;DHT22;6988;52.614;13.500;2023-02-05T05:06:04;-3.10;99.90
13835;DHT22;6988;52.614;13.500;2023-02-05T05:10:58;-2.90;99.90
13835;DHT22;6988;52.614;13.500;2023-02-05T05:15:57;-3.00;99.90
13835;DHT22;6988;52.614;13.500;2023-02-05T05:20:49;-3.00;99.90
13835;DHT22;6988;52.614;13.500;2023-02-05T05:25:41;-3.00;99.90
13835;DHT22;6988;52.614;13.500;2023-02-05T05:30:34;-3.00;99.90
13835;DHT22;6988;52.614;13.500;2023-02-05T05:35:28;-2.90;99.90
13835;DHT22;6988;52.614;13.500;2023-02-05T05:40:20;-2.90;99.90
13835;DHT22;6988;52.614;13.500;2023-02-05T05:45:29;-2.80;99.90
13835;DHT22;6988;52.614;13.500;2023-02-05T05:50:23;-2.80;99.90
13835;DHT22;6988;52.614;13.500;2023-02-05T05:55:15;-2.80;99.90
13835;DHT22;6988;52.614;13.500;2023-02-05T06:00:09;-2.80;99.90
13835;DHT22;6988;52.614;13.500;2023-02-05T06:05:02;-2.80;99.90
13835;DHT22;6988;52.614;13.500;2023-02-05T06:09:56;-2.80;99.90
13835;DHT22;6988;52.614;13.500;2023-02-05T06:14:48;-2.80;99.90
13835;DHT22;6988;52.614;13.500;2023-02-05T06:19:39;-2.90;99.90
13835;DHT22;6988;52.614;13.500;2023-02-05T06:24:31;-2.90;99.90
13835;DHT22;6988;52.614;13.500;2023-02-05T06:29:24;-2.90;99.90
13835;DHT22;6988;52.614;13.500;2023-02-05T06:34:16;-2.90;99.90
13835;DHT22;6988;52.614;13.500;2023-02-05T06:39:08;-2.80;99.90
13835;DHT22;6988;52.614;13.500;2023-02-05T06:44:00;-2.80;99.90
13835;DHT22;6988;52.614;13.500;2023-02-05T06:48:54;-2.80;99.90
13835;DHT22;6988;52.614;13.500;2023-02-05T06:53:46;-2.80;99.90
13835;DHT22;6988;52.614;13.500;2023-02-05T06:58:38;-2.80;99.90
13835;DHT22;6988;52.614;13.500;2023-02-05T07:03:29;-2.70;99.90
13835;DHT22;6988;52.614;13.500;2023-02-05T07:08:23;-2.60;99.90
13835;DHT22;6988;52.614;13.500;2023-02-05T07:13:14;-2.50;99.90
13835;DHT22;6988;52.614;13.500;2023-02-05T07:18:06;-2.40;99.90
13835;DHT22;6988;52.614;13.500;2023-02-05T07:22:58;-2.40;99.90
13835;DHT22;6988;52.614;13.500;2023-02-05T07:27:51;-2.30;99.90
13835;DHT22;6988;52.614;13.500;2023-02-05T07:32:43;-2.30;99.90
13835;DHT22;6988;52.614;13.500;2023-02-05T07:37:35;-2.30;99.90
13835;DHT22;6988;52.614;13.500;2023-02-05T07:42:30;-2.20;99.90
13835;DHT22;6988;52.614;13.500;2023-02-05T07:47:25;-2.20;99.90
13835;DHT22;6988;52.614;13.500;2023-02-05T07:52:16;-2.10;99.90
13835;DHT22;6988;52.614;13.500;2023-02-05T07:57:08;-2.00;99.90
13835;DHT22;6988;52.614;13.500;2023-02-05T08:02:00;-2.00;99.90
13835;DHT22;6988;52.614;13.500;2023-02-05T08:06:53;-1.80;99.90
13835;DHT22;6988;52.614;13.500;2023-02-05T08:11:45;-1.70;99.90
13835;DHT22;6988;52.614;13.500;2023-02-05T08:16:37;-1.60;99.90
13835;DHT22;6988;52.614;13.500;2023-02-05T08:21:29;-1.70;99.90
13835;DHT22;6988;52.614;13.500;2023-02-05T08:26:22;-1.60;99.90
13835;DHT22;6988;52.614;13.500;2023-02-05T08:31:15;-1.70;99.90
13835;DHT22;6988;52.614;13.500;2023-02-05T08:36:09;-1.60;99.90
13835;DHT22;6988;52.614;13.500;2023-02-05T08:41:03;-1.50;99.90
13835;DHT22;6988;52.614;13.500;2023-02-05T08:46:03;-1.40;99.90
13835;DHT22;6988;52.614;13.500;2023-02-05T08:50:55;-1.30;99.90
13835;DHT22;6988;52.614;13.500;2023-02-05T08:55:54;-1.30;99.90
13835;DHT22;6988;52.614;13.500;2023-02-05T09:00:45;-1.10;99.90
13835;DHT22;6988;52.614;13.500;2023-02-05T09:05:38;-1.00;99.90
13835;DHT22;6988;52.614;13.500;2023-02-05T09:10:30;-1.00;99.90
13835;DHT22;6988;52.614;13.500;2023-02-05T09:15:22;-0.80;99.90
13835;DHT22;6988;52.614;13.500;2023-02-05T09:20:14;-0.70;99.90
13835;DHT22;6988;52.614;13.500;2023-02-05T09:25:08;-0.70;99.90
13835;DHT22;6988;52.614;13.500;2023-02-05T09:30:01;-0.60;99.90
13835;DHT22;6988;52.614;13.500;2023-02-05T09:34:53;-0.60;99.90
13835;DHT22;6988;52.614;13.500;2023-02-05T09:39:45;-0.70;99.90
13835;DHT22;6988;52.614;13.500;2023-02-05T09:44:48;-0.50;99.90
13835;DHT22;6988;52.614;13.500;2023-02-05T09:49:55;-0.40;99.90
13835;DHT22;6988;52.614;13.500;2023-02-05T09:54:55;-0.40;99.90
13835;DHT22;6988;52.614;13.500;2023-02-05T09:59:51;-0.20;99.90
13835;DHT22;6988;52.614;13.500;2023-02-05T10:04:43;-0.10;99.90
13835;DHT22;6988;52.614;13.500;2023-02-05T10:09:57;0.00;99.90
13835;DHT22;6988;52.614;13.500;2023-02-05T10:15:21;0.00;99.90
13835;DHT22;6988;52.614;13.500;2023-02-05T10:20:33;0.20;99.90
13835;DHT22;6988;52.614;13.500;2023-02-05T10:25:53;0.10;99.90
13835;DHT22;6988;52.614;13.500;2023-02-05T10:31:00;0.20;99.90
13835;DHT22;6988;52.614;13.500;2023-02-05T10:35:59;0.30;99.90
13835;DHT22;6988;52.614;13.500;2023-02-05T10:40:56;0.40;99.90
13835;DHT22;6988;52.614;13.500;2023-02-05T10:45:56;0.50;99.90
13835;DHT22;6988;52.614;13.500;2023-02-05T10:50:54;0.60;99.90
13835;DHT22;6988;52.614;13.500;2023-02-05T10:55:50;0.40;99.90
13835;DHT22;6988;52.614;13.500;2023-02-05T11:00:42;0.40;99.90
13835;DHT22;6988;52.614;13.500;2023-02-05T11:05:37;0.50;99.90
13835;DHT22;6988;52.614;13.500;2023-02-05T11:10:33;0.50;99.90
13835;DHT22;6988;52.614;13.500;2023-02-05T11:15:28;0.40;99.90
13835;DHT22;6988;52.614;13.500;2023-02-05T11:20:25;0.40;99.90
13835;DHT22;6988;52.614;13.500;2023-02-05T11:25:22;0.60;99.90
13835;DHT22;6988;52.614;13.500;2023-02-05T11:30:24;0.70;99.90
13835;DHT22;6988;52.614;13.500;2023-02-05T11:35:22;0.70;99.90
13835;DHT22;6988;52.614;13.500;2023-02-05T11:40:22;0.90;99.90
13835;DHT22;6988;52.614;13.500;2023-02-05T11:45:16;1.00;99.90
13835;DHT22;6988;52.614;13.500;2023-02-05T11:50:19;1.10;99.90
13835;DHT22;6988;52.614;13.500;2023-02-05T11:55:25;1.10;99.90
13835;DHT22;6988;52.614;13.500;2023-02-05T12:00:21;1.30;99.90
13835;DHT22;6988;52.614;13.500;2023-02-05T12:05:17;1.30;99.90
13835;DHT22;6988;52.614;13.500;2023-02-05T12:10:14;1.40;99.90
13835;DHT22;6988;52.614;13.500;2023-02-05T12:15:15;1.40;99.90
13835;DHT22;6988;52.614;13.500;2023-02-05T12:20:19;1.40;99.90
13835;DHT22;6988;52.614;13.500;2023-02-05T12:25:21;1.30;99.90
13835;DHT22;6988;52.614;13.500;2023-02-05T12:30:38;1.30;99.90
13835;DHT22;6988;52.614;13.500;2023-02-05T12:35:52;1.40;99.90
13835;DHT22;6988;52.614;13.500;2023-02-05T12:40:59;1.30;99.90
13835;DHT22;6988;52.614;13.500;2023-02-05T12:46:07;1.50;99.90
13835;DHT22;6988;52.614;13.500;2023-02-05T12:51:29;1.70;99.90
13835;DHT22;6988;52.614;13.500;2023-02-05T12:56:46;1.70;99.90
13835;DHT22;6988;52.614;13.500;2023-02-05T13:01:50;1.80;99.90
13835;DHT22;6988;52.614;13.500;2023-02-05T13:06:50;2.00;99.90
13835;DHT22;6988;52.614;13.500;2023-02-05T13:11:50;2.10;99.90
13835;DHT22;6988;52.614;13.500;2023-02-05T13:16:55;2.30;99.90
13835;DHT22;6988;52.614;13.500;2023-02-05T13:21:55;2.50;99.90
13835;DHT22;6988;52.614;13.500;2023-02-05T13:27:17;2.40;99.90
13835;DHT22;6988;52.614;13.500;2023-02-05T13:32:31;2.30;99.90
13835;DHT22;6988;52.614;13.500;2023-02-05T13:37:36;2.40;99.90
13835;DHT22;6988;52.614;13.500;2023-02-05T13:42:58;2.30;99.90
13835;DHT22;6988;52.614;13.500;2023-02-05T13:59:55;2.50;99.90
13835;DHT22;6988;52.614;13.500;2023-02-05T14:04:49;2.30;99.90
13835;DHT22;6988;52.614;13.500;2023-02-05T14:09:49;2.50;99.90
13835;DHT22;6988;52.614;13.500;2023-02-05T14:15:22;2.50;99.90
13835;DHT22;6988;52.614;13.500;2023-02-05T14:20:35;2.50;99.90
13835;DHT22;6988;52.614;13.500;2023-02-05T14:26:07;2.40;99.90
13835;DHT22;6988;52.614;13.500;2023-02-05T14:31:00;2.30;99.90
13835;DHT22;6988;52.614;13.500;2023-02-05T14:35:55;2.20;99.90
13835;DHT22;6988;52.614;13.500;2023-02-05T14:41:00;2.20;99.90
13835;DHT22;6988;52.614;13.500;2023-02-05T14:46:02;2.00;99.90
13835;DHT22;6988;52.614;13.500;2023-02-05T14:51:03;1.90;99.90
13835;DHT22;6988;52.614;13.500;2023-02-05T14:55:56;1.70;99.90
13835;DHT22;6988;52.614;13.500;2023-02-05T15:00:49;1.70;99.90
13835;DHT22;6988;52.614;13.500;2023-02-05T15:05:48;1.60;99.90
13835;DHT22;6988;52.614;13.500;2023-02-05T15:10:51;1.50;99.90
13835;DHT22;6988;52.614;13.500;2023-02-05T15:16:05;1.50;99.90
13835;DHT22;6988;52.614;13.500;2023-02-05T15:20:59;1.30;99.90
13835;DHT22;6988;52.614;13.500;2023-02-05T15:25:57;1.30;99.90
13835;DHT22;6988;52.614;13.500;2023-02-05T15:31:18;1.20;99.90
13835;DHT22;6988;52.614;13.500;2023-02-05T15:36:29;1.20;99.90
13835;DHT22;6988;52.614;13.500;2023-02-05T15:41:26;1.00;99.90
13835;DHT22;6988;52.614;13.500;2023-02-05T15:46:20;0.80;99.90
13835;DHT22;6988;52.614;13.500;2023-02-05T15:51:16;0.70;99.90
13835;DHT22;6988;52.614;13.500;2023-02-05T15:56:15;0.60;99.90
13835;DHT22;6988;52.614;13.500;2023-02-05T16:01:23;0.40;99.90
13835;DHT22;6988;52.614;13.500;2023-02-05T16:06:18;0.40;99.90
13835;DHT22;6988;52.614;13.500;2023-02-05T16:11:10;0.40;99.90
13835;DHT22;6988;52.614;13.500;2023-02-05T16:16:04;0.30;99.90
13835;DHT22;6988;52.614;13.500;2023-02-05T16:21:02;0.30;99.90
13835;DHT22;6988;52.614;13.500;2023-02-05T16:26:04;0.20;99.90
13835;DHT22;6988;52.614;13.500;2023-02-05T16:31:02;0.20;99.90
13835;DHT22;6988;52.614;13.500;2023-02-05T16:35:57;0.00;99.90
13835;DHT22;6988;52.614;13.500;2023-02-05T16:40:54;-0.20;99.90
13835;DHT22;6988;52.614;13.500;2023-02-05T16:46:19;-0.10;99.90
13835;DHT22;6988;52.614;13.500;2023-02-05T16:51:31;-0.20;99.90
13835;DHT22;6988;52.614;13.500;2023-02-05T16:56:27;-0.30;99.90
13835;DHT22;6988;52.614;13.500;2023-02-05T17:01:24;-0.40;99.90
13835;DHT22;6988;52.614;13.500;2023-02-05T17:06:18;-0.50;99.90
13835;DHT22;6988;52.614;13.500;2023-02-05T17:11:31;-0.60;99.90
13835;DHT22;6988;52.614;13.500;2023-02-05T17:16:27;-0.60;99.90
13835;DHT22;6988;52.614;13.500;2023-02-05T17:21:22;-0.50;99.90
13835;DHT22;6988;52.614;13.500;2023-02-05T17:26:17;-0.60;99.90
13835;DHT22;6988;52.614;13.500;2023-02-05T17:31:11;-0.60;99.90
13835;DHT22;6988;52.614;13.500;2023-02-05T17:36:07;-0.70;99.90
13835;DHT22;6988;52.614;13.500;2023-02-05T17:41:04;-0.80;99.90
13835;DHT22;6988;52.614;13.500;2023-02-05T17:46:15;-0.90;99.90
13835;DHT22;6988;52.614;13.500;2023-02-05T17:51:14;-0.90;99.90
13835;DHT22;6988;52.614;13.500;2023-02-05T17:56:08;-1.00;99.90
13835;DHT22;6988;52.614;13.500;2023-02-05T18:01:02;-1.10;99.90
13835;DHT22;6988;52.614;13.500;2023-02-05T18:05:56;-1.00;99.90
13835;DHT22;6988;52.614;13.500;2023-02-05T18:10:48;-1.00;99.90
13835;DHT22;6988;52.614;13.500;2023-02-05T18:15:40;-1.20;99.90
13835;DHT22;6988;52.614;13.500;2023-02-05T18:20:32;-1.20;99.90
13835;DHT22;6988;52.614;13.500;2023-02-05T18:25:25;-1.30;99.90
13835;DHT22;6988;52.614;13.500;2023-02-05T18:30:17;-1.30;99.90
13835;DHT22;6988;52.614;13.500;2023-02-05T18:35:09;-1.40;99.90
13835;DHT22;6988;52.614;13.500;2023-02-05T18:40:04;-1.40;99.90
13835;DHT22;6988;52.614;13.500;2023-02-05T18:44:58;-1.50;99.90
13835;DHT22;6988;52.614;13.500;2023-02-05T18:49:49;-1.50;99.90
13835;DHT22;6988;52.614;13.500;2023-02-05T18:54:41;-1.40;99.90
13835;DHT22;6988;52.614;13.500;2023-02-05T18:59:33;-1.60;99.90
13835;DHT22;6988;52.614;13.500;2023-02-05T19:04:27;-1.60;99.90
13835;DHT22;6988;52.614;13.500;2023-02-05T19:09:23;-1.70;99.90
13835;DHT22;6988;52.614;13.500;2023-02-05T19:14:18;-1.70;99.90
13835;DHT22;6988;52.614;13.500;2023-02-05T19:19:11;-1.70;99.90
13835;DHT22;6988;52.614;13.500;2023-02-05T19:24:06;-1.70;99.90
13835;DHT22;6988;52.614;13.500;2023-02-05T19:29:03;-1.80;99.90
13835;DHT22;6988;52.614;13.500;2023-02-05T19:33:56;-1.90;99.90
13835;DHT22;6988;52.614;13.500;2023-02-05T19:38:48;-1.80;99.90
13835;DHT22;6988;52.614;13.500;2023-02-05T19:43:42;-2.00;99.90
13835;DHT22;6988;52.614;13.500;2023-02-05T19:48:40;-2.00;99.90
13835;DHT22;6988;52.614;13.500;2023-02-05T19:53:32;-2.00;99.90
13835;DHT22;6988;52.614;13.500;2023-02-05T19:58:24;-2.10;99.90
13835;DHT22;6988;52.614;13.500;2023-02-05T20:03:17;-2.20;99.90
13835;DHT22;6988;52.614;13.500;2023-02-05T20:08:09;-2.20;99.90
13835;DHT22;6988;52.614;13.500;2023-02-05T20:13:01;-2.30;99.90
13835;DHT22;6988;52.614;13.500;2023-02-05T20:17:53;-2.30;99.90
13835;DHT22;6988;52.614;13.500;2023-02-05T20:22:47;-2.40;99.90
13835;DHT22;6988;52.614;13.500;2023-02-05T20:27:43;-2.40;99.90
13835;DHT22;6988;52.614;13.500;2023-02-05T20:32:35;-2.50;99.90
13835;DHT22;6988;52.614;13.500;2023-02-05T20:37:26;-2.60;99.90
13835;DHT22;6988;52.614;13.500;2023-02-05T20:42:19;-2.60;99.90
13835;DHT22;6988;52.614;13.500;2023-02-05T20:47:13;-2.60;99.90
13835;DHT22;6988;52.614;13.500;2023-02-05T20:52:05;-2.70;99.90
13835;DHT22;6988;52.614;13.500;2023-02-05T20:56:57;-2.70;99.90
13835;DHT22;6988;52.614;13.500;2023-02-05T21:01:51;-2.80;99.90
13835;DHT22;6988;52.614;13.500;2023-02-05T21:06:44;-2.70;99.90
13835;DHT22;6988;52.614;13.500;2023-02-05T21:11:36;-2.80;99.90
13835;DHT22;6988;52.614;13.500;2023-02-05T21:16:29;-2.80;99.90
13835;DHT22;6988;52.614;13.500;2023-02-05T21:21:24;-2.90;99.90
13835;DHT22;6988;52.614;13.500;2023-02-05T21:26:18;-2.90;99.90
13835;DHT22;6988;52.614;13.500;2023-02-05T21:31:11;-2.90;99.90
13835;DHT22;6988;52.614;13.500;2023-02-05T21:36:03;-2.80;99.90
13835;DHT22;6988;52.614;13.500;2023-02-05T21:40:57;-2.90;99.90
13835;DHT22;6988;52.614;13.500;2023-02-05T21:45:49;-3.00;99.90
13835;DHT22;6988;52.614;13.500;2023-02-05T21:50:41;-3.00;99.90
13835;DHT22;6988;52.614;13.500;2023-02-05T21:55:32;-3.00;99.90
13835;DHT22;6988;52.614;13.500;2023-02-05T22:00:26;-3.10;99.90
13835;DHT22;6988;52.614;13.500;2023-02-05T22:05:17;-3.10;99.90
13835;DHT22;6988;52.614;13.500;2023-02-05T22:10:09;-3.10;99.90
13835;DHT22;6988;52.614;13.500;2023-02-05T22:15:01;-3.10;99.90
13835;DHT22;6988;52.614;13.500;2023-02-05T22:19:54;-3.10;99.90
13835;DHT22;6988;52.614;13.500;2023-02-05T22:24:46;-3.10;99.90
13835;DHT22;6988;52.614;13.500;2023-02-05T22:29:38;-3.00;99.90
13835;DHT22;6988;52.614;13.500;2023-02-05T22:34:29;-3.20;99.90
13835;DHT22;6988;52.614;13.500;2023-02-05T22:39:22;-3.20;99.90
13835;DHT22;6988;52.614;13.500;2023-02-05T22:44:14;-3.30;99.90
13835;DHT22;6988;52.614;13.500;2023-02-05T23:05:17;-3.40;99.90
13835;DHT22;6988;52.614;13.500;2023-02-05T23:10:09;-3.50;99.90
13835;DHT22;6988;52.614;13.500;2023-02-05T23:15:01;-3.50;99.90
13835;DHT22;6988;52.614;13.500;2023-02-05T23:19:52;-3.50;99.90
13835;DHT22;6988;52.614;13.500;2023-02-05T23:24:46;-3.50;99.90
13835;DHT22;6988;52.614;13.500;2023-02-05T23:29:37;-3.20;99.90
13835;DHT22;6988;52.614;13.500;2023-02-05T23:34:29;-3.40;99.90
13835;DHT22;6988;52.614;13.500;2023-02-05T23:39:21;-3.50;99.90
13835;DHT22;6988;52.614;13.500;2023-02-05T23:44:15;-3.50;99.90
13835;DHT22;6988;52.614;13.500;2023-02-05T23:49:09;-3.50;99.90
13835;DHT22;6988;52.614;13.500;2023-02-05T23:54:02;-3.50;99.90
13835;DHT22;6988;52.614;13.500;2023-02-05T23:58:54;-3.50;99.90
